Welcome to Trans World Virtual Airlines!

Welcome TWVA's Newest Pilot:

TWA2313 Bryan Heald

Not a Trans World pilot yet?
Apply Now!




Sign-in with your pilot id or email, or register

Flight TWA7462

  • Submitted By: Austin Hill
  • Departure Airport: Lambert-Saint Louis International Airport (KSTL)
  • Arrival Airport: Birmingham Municipal Airport-North (KBHM)
  • Aircraft: E170 (N173TE)
  • Flight Time: 01.50
  • Date Submitted: 09/27/2018
  • Route: FAM VISQA VUZ
  • Status: Accepted
Flight Details
Gross Revenue:
(69 load / $ 195.00 per unit
$ 13, 455.00
Fuel Cost:
(5032 fuel used @ 0.8 / unit)
$ 4, 025.60

Additional Log Information:

View Log

FS[01:48] Aircraft Title - Embraer 170 TWA
FS[01:48] Aircraft Model - E-170
FS[01:48] Flight Number TWA7462
FS[01:48] Departure KSTL
FS[01:48] Destination KBHM
FS[01:49] Boarding
FS[02:00] Pushing Back
FS[02:05] Taxiing to Runway
FS[02:13] Taking Off
FS[02:14] Taking Off
FS[02:14] 151kts
FS[02:14] pitch angle 5 degrees
FS[02:14] 12923 (lbs) of fuel onboard
FS[02:14] Climbing
FS[02:32] TOC Reached
FS[02:32] Cruise 33000
FS[02:53] TOD Reached
FS[02:53] Descending
FS[03:09] On Approach
FS[03:18] Landing Rate -152fpm
FS[03:18] 8858 (lbs) of fuel onboard
FS[03:18] pitch angle 7 degrees
FS[03:18] Taxiing to Gate
FS[03:23] Arrived
FS[03:32] Max Sim Rate: 1x
FS[03:32] kACARS_Free Version 1.0.1.1

Comments

Commenter Comment
Austin Hill KMCI 280152Z 10SM CLR 22/07 A2998 // KBHM 280252Z 00000KT SCT009 SCT042 BKN075 23/22 A3001

Route Map